sensor_id;sensor_type;location;lat;lon;timestamp;P1;durP1;ratioP1;P2;durP2;ratioP2
15699;SDS011;7950;42.744;23.174;2023-01-25T00:00:29;4.67;;;3.10;;
15699;SDS011;7950;42.744;23.174;2023-01-25T00:02:58;5.53;;;3.40;;
15699;SDS011;7950;42.744;23.174;2023-01-25T00:08:27;3.83;;;2.97;;
15699;SDS011;7950;42.744;23.174;2023-01-25T00:10:56;7.87;;;4.03;;
15699;SDS011;7950;42.744;23.174;2023-01-25T00:13:24;5.57;;;3.37;;
15699;SDS011;7950;42.744;23.174;2023-01-25T00:18:49;4.43;;;3.20;;
15699;SDS011;7950;42.744;23.174;2023-01-25T00:21:19;3.80;;;3.13;;
15699;SDS011;7950;42.744;23.174;2023-01-25T00:23:49;5.00;;;3.70;;
15699;SDS011;7950;42.744;23.174;2023-01-25T00:29:19;3.77;;;3.23;;
15699;SDS011;7950;42.744;23.174;2023-01-25T00:32:02;4.80;;;3.37;;
15699;SDS011;7950;42.744;23.174;2023-01-25T00:34:54;4.83;;;3.43;;
15699;SDS011;7950;42.744;23.174;2023-01-25T00:37:27;5.30;;;2.80;;
15699;SDS011;7950;42.744;23.174;2023-01-25T00:39:57;15.57;;;7.00;;
15699;SDS011;7950;42.744;23.174;2023-01-25T00:42:26;13.30;;;5.83;;
15699;SDS011;7950;42.744;23.174;2023-01-25T00:44:54;6.83;;;3.70;;
15699;SDS011;7950;42.744;23.174;2023-01-25T00:47:23;5.00;;;3.00;;
15699;SDS011;7950;42.744;23.174;2023-01-25T00:49:52;6.07;;;3.03;;
15699;SDS011;7950;42.744;23.174;2023-01-25T00:52:21;4.00;;;2.63;;
15699;SDS011;7950;42.744;23.174;2023-01-25T00:54:51;4.87;;;3.00;;
15699;SDS011;7950;42.744;23.174;2023-01-25T00:57:20;3.57;;;3.00;;
15699;SDS011;7950;42.744;23.174;2023-01-25T00:59:48;4.07;;;2.97;;
15699;SDS011;7950;42.744;23.174;2023-01-25T01:02:17;3.57;;;2.70;;
15699;SDS011;7950;42.744;23.174;2023-01-25T01:04:45;3.13;;;2.43;;
15699;SDS011;7950;42.744;23.174;2023-01-25T01:10:08;4.17;;;2.73;;
15699;SDS011;7950;42.744;23.174;2023-01-25T01:15:28;4.00;;;3.13;;
15699;SDS011;7950;42.744;23.174;2023-01-25T01:17:57;3.40;;;2.53;;
15699;SDS011;7950;42.744;23.174;2023-01-25T01:20:25;3.30;;;2.47;;
15699;SDS011;7950;42.744;23.174;2023-01-25T01:23:10;3.80;;;2.50;;
15699;SDS011;7950;42.744;23.174;2023-01-25T01:25:41;4.50;;;2.80;;
15699;SDS011;7950;42.744;23.174;2023-01-25T01:28:10;3.77;;;2.63;;
15699;SDS011;7950;42.744;23.174;2023-01-25T01:30:39;4.83;;;2.63;;
15699;SDS011;7950;42.744;23.174;2023-01-25T01:33:08;3.60;;;2.50;;
15699;SDS011;7950;42.744;23.174;2023-01-25T01:35:36;3.67;;;3.00;;
15699;SDS011;7950;42.744;23.174;2023-01-25T01:38:04;3.87;;;2.90;;
15699;SDS011;7950;42.744;23.174;2023-01-25T01:40:33;4.50;;;3.10;;
15699;SDS011;7950;42.744;23.174;2023-01-25T01:43:04;6.00;;;3.50;;
15699;SDS011;7950;42.744;23.174;2023-01-25T01:45:50;3.10;;;2.53;;
15699;SDS011;7950;42.744;23.174;2023-01-25T01:48:23;3.80;;;3.07;;
15699;SDS011;7950;42.744;23.174;2023-01-25T01:50:59;3.70;;;2.60;;
15699;SDS011;7950;42.744;23.174;2023-01-25T01:56:30;4.60;;;2.80;;
15699;SDS011;7950;42.744;23.174;2023-01-25T01:59:03;3.93;;;2.73;;
15699;SDS011;7950;42.744;23.174;2023-01-25T02:01:33;3.47;;;2.40;;
15699;SDS011;7950;42.744;23.174;2023-01-25T02:04:02;2.97;;;2.30;;
15699;SDS011;7950;42.744;23.174;2023-01-25T02:09:30;6.07;;;2.70;;
15699;SDS011;7950;42.744;23.174;2023-01-25T02:12:00;4.87;;;2.90;;
15699;SDS011;7950;42.744;23.174;2023-01-25T02:14:33;5.30;;;3.73;;
15699;SDS011;7950;42.744;23.174;2023-01-25T02:17:02;5.37;;;3.20;;
15699;SDS011;7950;42.744;23.174;2023-01-25T02:19:34;4.00;;;2.60;;
15699;SDS011;7950;42.744;23.174;2023-01-25T02:22:28;3.27;;;2.30;;
15699;SDS011;7950;42.744;23.174;2023-01-25T02:27:59;3.47;;;2.50;;
15699;SDS011;7950;42.744;23.174;2023-01-25T02:30:33;3.40;;;2.80;;
15699;SDS011;7950;42.744;23.174;2023-01-25T02:36:14;5.40;;;2.40;;
15699;SDS011;7950;42.744;23.174;2023-01-25T02:38:46;3.17;;;2.40;;
15699;SDS011;7950;42.744;23.174;2023-01-25T02:44:06;4.83;;;3.17;;
15699;SDS011;7950;42.744;23.174;2023-01-25T02:46:39;4.63;;;3.23;;
15699;SDS011;7950;42.744;23.174;2023-01-25T02:49:08;3.90;;;2.73;;
15699;SDS011;7950;42.744;23.174;2023-01-25T02:51:38;4.30;;;2.57;;
15699;SDS011;7950;42.744;23.174;2023-01-25T02:54:09;3.90;;;2.60;;
15699;SDS011;7950;42.744;23.174;2023-01-25T02:56:40;3.97;;;2.70;;
15699;SDS011;7950;42.744;23.174;2023-01-25T02:59:09;3.93;;;3.10;;
15699;SDS011;7950;42.744;23.174;2023-01-25T03:01:39;5.00;;;2.73;;
15699;SDS011;7950;42.744;23.174;2023-01-25T03:04:09;6.53;;;3.20;;
15699;SDS011;7950;42.744;23.174;2023-01-25T03:06:42;3.93;;;2.83;;
15699;SDS011;7950;42.744;23.174;2023-01-25T03:09:11;4.70;;;2.80;;
15699;SDS011;7950;42.744;23.174;2023-01-25T03:11:41;3.40;;;2.70;;
15699;SDS011;7950;42.744;23.174;2023-01-25T03:14:10;3.33;;;2.80;;
15699;SDS011;7950;42.744;23.174;2023-01-25T03:16:39;5.57;;;3.90;;
15699;SDS011;7950;42.744;23.174;2023-01-25T03:19:07;6.07;;;5.00;;
15699;SDS011;7950;42.744;23.174;2023-01-25T03:24:33;4.90;;;2.37;;
15699;SDS011;7950;42.744;23.174;2023-01-25T03:27:03;3.27;;;2.33;;
15699;SDS011;7950;42.744;23.174;2023-01-25T03:29:39;3.50;;;2.53;;
15699;SDS011;7950;42.744;23.174;2023-01-25T03:32:08;3.27;;;2.70;;
15699;SDS011;7950;42.744;23.174;2023-01-25T03:34:37;3.07;;;2.50;;
15699;SDS011;7950;42.744;23.174;2023-01-25T03:37:05;3.47;;;2.70;;
15699;SDS011;7950;42.744;23.174;2023-01-25T03:39:34;2.97;;;2.43;;
15699;SDS011;7950;42.744;23.174;2023-01-25T03:42:05;2.93;;;2.40;;
15699;SDS011;7950;42.744;23.174;2023-01-25T03:44:33;5.93;;;3.40;;
15699;SDS011;7950;42.744;23.174;2023-01-25T03:47:02;5.90;;;2.93;;
15699;SDS011;7950;42.744;23.174;2023-01-25T03:49:31;3.70;;;2.80;;
15699;SDS011;7950;42.744;23.174;2023-01-25T03:52:00;4.17;;;2.50;;
15699;SDS011;7950;42.744;23.174;2023-01-25T03:54:28;2.80;;;2.50;;
15699;SDS011;7950;42.744;23.174;2023-01-25T03:56:57;4.33;;;2.90;;
15699;SDS011;7950;42.744;23.174;2023-01-25T03:59:42;4.80;;;2.80;;
15699;SDS011;7950;42.744;23.174;2023-01-25T04:02:11;5.47;;;3.10;;
15699;SDS011;7950;42.744;23.174;2023-01-25T04:04:40;4.77;;;3.07;;
15699;SDS011;7950;42.744;23.174;2023-01-25T04:07:09;3.93;;;2.33;;
15699;SDS011;7950;42.744;23.174;2023-01-25T04:09:37;4.37;;;2.60;;
15699;SDS011;7950;42.744;23.174;2023-01-25T04:12:06;3.77;;;2.70;;
15699;SDS011;7950;42.744;23.174;2023-01-25T04:14:35;5.60;;;3.60;;
15699;SDS011;7950;42.744;23.174;2023-01-25T04:17:11;10.60;;;4.97;;
15699;SDS011;7950;42.744;23.174;2023-01-25T04:19:46;4.80;;;3.10;;
15699;SDS011;7950;42.744;23.174;2023-01-25T04:22:15;2.97;;;2.50;;
15699;SDS011;7950;42.744;23.174;2023-01-25T04:24:44;4.47;;;2.70;;
15699;SDS011;7950;42.744;23.174;2023-01-25T04:27:12;3.47;;;2.60;;
15699;SDS011;7950;42.744;23.174;2023-01-25T04:29:41;4.47;;;2.40;;
15699;SDS011;7950;42.744;23.174;2023-01-25T04:32:11;3.53;;;2.90;;
15699;SDS011;7950;42.744;23.174;2023-01-25T04:34:40;3.77;;;2.53;;
15699;SDS011;7950;42.744;23.174;2023-01-25T04:37:09;3.80;;;2.60;;
15699;SDS011;7950;42.744;23.174;2023-01-25T04:39:37;3.60;;;2.73;;
15699;SDS011;7950;42.744;23.174;2023-01-25T04:42:06;4.57;;;3.10;;
15699;SDS011;7950;42.744;23.174;2023-01-25T04:44:34;4.37;;;3.20;;
15699;SDS011;7950;42.744;23.174;2023-01-25T04:49:58;4.10;;;2.90;;
15699;SDS011;7950;42.744;23.174;2023-01-25T04:52:27;3.97;;;2.90;;
15699;SDS011;7950;42.744;23.174;2023-01-25T04:54:55;4.20;;;2.90;;
15699;SDS011;7950;42.744;23.174;2023-01-25T04:57:24;3.83;;;2.97;;
15699;SDS011;7950;42.744;23.174;2023-01-25T04:59:53;5.50;;;3.20;;
15699;SDS011;7950;42.744;23.174;2023-01-25T05:02:21;4.73;;;3.23;;
15699;SDS011;7950;42.744;23.174;2023-01-25T05:04:52;4.40;;;2.90;;
15699;SDS011;7950;42.744;23.174;2023-01-25T05:07:20;4.97;;;3.17;;
15699;SDS011;7950;42.744;23.174;2023-01-25T05:09:49;5.57;;;3.40;;
15699;SDS011;7950;42.744;23.174;2023-01-25T05:12:18;3.83;;;3.07;;
15699;SDS011;7950;42.744;23.174;2023-01-25T05:14:47;9.63;;;5.97;;
15699;SDS011;7950;42.744;23.174;2023-01-25T05:17:15;11.03;;;7.50;;
15699;SDS011;7950;42.744;23.174;2023-01-25T05:19:44;14.70;;;10.47;;
15699;SDS011;7950;42.744;23.174;2023-01-25T05:22:15;6.43;;;3.70;;
15699;SDS011;7950;42.744;23.174;2023-01-25T05:24:46;8.23;;;6.87;;
15699;SDS011;7950;42.744;23.174;2023-01-25T05:27:16;7.27;;;4.80;;
15699;SDS011;7950;42.744;23.174;2023-01-25T05:29:45;12.03;;;9.50;;
15699;SDS011;7950;42.744;23.174;2023-01-25T05:32:15;4.40;;;3.67;;
15699;SDS011;7950;42.744;23.174;2023-01-25T05:34:45;13.97;;;7.50;;
15699;SDS011;7950;42.744;23.174;2023-01-25T05:37:25;32.97;;;18.83;;
15699;SDS011;7950;42.744;23.174;2023-01-25T05:39:54;14.00;;;10.10;;
15699;SDS011;7950;42.744;23.174;2023-01-25T05:42:23;25.83;;;17.83;;
15699;SDS011;7950;42.744;23.174;2023-01-25T05:47:51;9.17;;;5.63;;
15699;SDS011;7950;42.744;23.174;2023-01-25T05:50:20;4.63;;;3.80;;
15699;SDS011;7950;42.744;23.174;2023-01-25T05:52:52;5.47;;;3.30;;
15699;SDS011;7950;42.744;23.174;2023-01-25T05:55:20;5.93;;;3.27;;
15699;SDS011;7950;42.744;23.174;2023-01-25T05:57:49;5.00;;;2.90;;
15699;SDS011;7950;42.744;23.174;2023-01-25T06:00:18;5.63;;;3.47;;
15699;SDS011;7950;42.744;23.174;2023-01-25T06:02:47;11.57;;;7.73;;
15699;SDS011;7950;42.744;23.174;2023-01-25T06:05:16;5.17;;;3.50;;
15699;SDS011;7950;42.744;23.174;2023-01-25T06:07:45;6.90;;;4.93;;
15699;SDS011;7950;42.744;23.174;2023-01-25T06:10:15;5.87;;;3.30;;
15699;SDS011;7950;42.744;23.174;2023-01-25T06:12:44;8.13;;;3.50;;
15699;SDS011;7950;42.744;23.174;2023-01-25T06:15:13;8.87;;;6.90;;
15699;SDS011;7950;42.744;23.174;2023-01-25T06:17:42;7.00;;;4.73;;
15699;SDS011;7950;42.744;23.174;2023-01-25T06:20:11;6.87;;;4.50;;
15699;SDS011;7950;42.744;23.174;2023-01-25T06:22:40;9.83;;;7.63;;
15699;SDS011;7950;42.744;23.174;2023-01-25T06:25:08;6.37;;;4.70;;
15699;SDS011;7950;42.744;23.174;2023-01-25T06:27:40;16.83;;;6.07;;
15699;SDS011;7950;42.744;23.174;2023-01-25T06:30:09;7.83;;;3.53;;
15699;SDS011;7950;42.744;23.174;2023-01-25T06:32:38;35.20;;;9.03;;
15699;SDS011;7950;42.744;23.174;2023-01-25T06:35:07;67.20;;;18.27;;
15699;SDS011;7950;42.744;23.174;2023-01-25T06:37:36;66.27;;;21.90;;
15699;SDS011;7950;42.744;23.174;2023-01-25T06:40:05;17.20;;;7.93;;
15699;SDS011;7950;42.744;23.174;2023-01-25T06:42:35;11.93;;;6.63;;
15699;SDS011;7950;42.744;23.174;2023-01-25T06:45:06;4.13;;;2.87;;
15699;SDS011;7950;42.744;23.174;2023-01-25T06:47:36;15.63;;;7.63;;
15699;SDS011;7950;42.744;23.174;2023-01-25T06:50:06;14.57;;;8.03;;
15699;SDS011;7950;42.744;23.174;2023-01-25T06:52:36;27.10;;;11.23;;
15699;SDS011;7950;42.744;23.174;2023-01-25T06:55:05;6.97;;;3.97;;
15699;SDS011;7950;42.744;23.174;2023-01-25T06:57:39;11.30;;;4.83;;
15699;SDS011;7950;42.744;23.174;2023-01-25T07:00:21;19.50;;;6.77;;
15699;SDS011;7950;42.744;23.174;2023-01-25T07:02:57;19.97;;;7.90;;
15699;SDS011;7950;42.744;23.174;2023-01-25T07:05:29;30.33;;;9.63;;
15699;SDS011;7950;42.744;23.174;2023-01-25T07:07:57;10.83;;;5.00;;
15699;SDS011;7950;42.744;23.174;2023-01-25T07:10:26;20.83;;;8.30;;
15699;SDS011;7950;42.744;23.174;2023-01-25T07:12:55;6.67;;;3.53;;
15699;SDS011;7950;42.744;23.174;2023-01-25T07:15:25;20.30;;;7.67;;
15699;SDS011;7950;42.744;23.174;2023-01-25T07:17:53;36.53;;;13.43;;
15699;SDS011;7950;42.744;23.174;2023-01-25T07:20:36;17.53;;;7.87;;
15699;SDS011;7950;42.744;23.174;2023-01-25T07:23:05;28.60;;;10.87;;
15699;SDS011;7950;42.744;23.174;2023-01-25T07:25:33;6.17;;;5.00;;
15699;SDS011;7950;42.744;23.174;2023-01-25T07:28:02;46.27;;;17.07;;
15699;SDS011;7950;42.744;23.174;2023-01-25T07:30:33;21.43;;;11.13;;
15699;SDS011;7950;42.744;23.174;2023-01-25T07:36:21;6.70;;;5.37;;
15699;SDS011;7950;42.744;23.174;2023-01-25T07:38:51;13.13;;;8.97;;
15699;SDS011;7950;42.744;23.174;2023-01-25T07:41:20;11.07;;;7.07;;
15699;SDS011;7950;42.744;23.174;2023-01-25T07:43:50;7.37;;;6.30;;
15699;SDS011;7950;42.744;23.174;2023-01-25T07:46:20;20.03;;;11.57;;
15699;SDS011;7950;42.744;23.174;2023-01-25T07:48:50;29.03;;;13.23;;
15699;SDS011;7950;42.744;23.174;2023-01-25T07:51:20;9.10;;;6.30;;
15699;SDS011;7950;42.744;23.174;2023-01-25T07:53:50;16.87;;;7.57;;
15699;SDS011;7950;42.744;23.174;2023-01-25T07:56:20;14.60;;;7.43;;
15699;SDS011;7950;42.744;23.174;2023-01-25T07:58:50;19.57;;;8.17;;
15699;SDS011;7950;42.744;23.174;2023-01-25T08:01:23;16.37;;;6.93;;
15699;SDS011;7950;42.744;23.174;2023-01-25T08:03:53;12.33;;;6.90;;
15699;SDS011;7950;42.744;23.174;2023-01-25T08:06:23;12.47;;;5.83;;
15699;SDS011;7950;42.744;23.174;2023-01-25T08:08:56;14.63;;;6.47;;
15699;SDS011;7950;42.744;23.174;2023-01-25T08:11:27;11.40;;;5.03;;
15699;SDS011;7950;42.744;23.174;2023-01-25T08:13:57;7.83;;;5.20;;
15699;SDS011;7950;42.744;23.174;2023-01-25T08:16:29;9.33;;;5.47;;
15699;SDS011;7950;42.744;23.174;2023-01-25T08:18:59;10.97;;;6.37;;
15699;SDS011;7950;42.744;23.174;2023-01-25T08:21:30;15.70;;;8.40;;
15699;SDS011;7950;42.744;23.174;2023-01-25T08:24:01;8.07;;;4.40;;
15699;SDS011;7950;42.744;23.174;2023-01-25T08:26:31;11.03;;;4.97;;
15699;SDS011;7950;42.744;23.174;2023-01-25T08:29:00;11.27;;;6.17;;
15699;SDS011;7950;42.744;23.174;2023-01-25T08:31:31;11.43;;;5.07;;
15699;SDS011;7950;42.744;23.174;2023-01-25T08:34:01;6.97;;;4.20;;
15699;SDS011;7950;42.744;23.174;2023-01-25T08:36:30;7.80;;;4.27;;
15699;SDS011;7950;42.744;23.174;2023-01-25T08:39:00;11.73;;;5.53;;
15699;SDS011;7950;42.744;23.174;2023-01-25T08:41:32;9.57;;;5.57;;
15699;SDS011;7950;42.744;23.174;2023-01-25T08:46:58;11.63;;;6.77;;
15699;SDS011;7950;42.744;23.174;2023-01-25T08:49:26;14.60;;;6.43;;
15699;SDS011;7950;42.744;23.174;2023-01-25T08:51:56;12.23;;;6.57;;
15699;SDS011;7950;42.744;23.174;2023-01-25T08:54:25;14.80;;;6.53;;
15699;SDS011;7950;42.744;23.174;2023-01-25T08:56:53;12.60;;;7.30;;
15699;SDS011;7950;42.744;23.174;2023-01-25T08:59:22;16.47;;;8.23;;
15699;SDS011;7950;42.744;23.174;2023-01-25T09:01:51;10.33;;;6.40;;
15699;SDS011;7950;42.744;23.174;2023-01-25T09:10:15;10.20;;;5.80;;
15699;SDS011;7950;42.744;23.174;2023-01-25T09:12:44;8.10;;;5.43;;
15699;SDS011;7950;42.744;23.174;2023-01-25T09:15:13;6.87;;;5.00;;
15699;SDS011;7950;42.744;23.174;2023-01-25T09:17:41;8.63;;;5.03;;
15699;SDS011;7950;42.744;23.174;2023-01-25T09:20:11;9.93;;;5.80;;
15699;SDS011;7950;42.744;23.174;2023-01-25T09:22:42;9.63;;;5.80;;
15699;SDS011;7950;42.744;23.174;2023-01-25T09:25:19;7.77;;;5.70;;
15699;SDS011;7950;42.744;23.174;2023-01-25T09:27:48;9.80;;;6.53;;
15699;SDS011;7950;42.744;23.174;2023-01-25T09:30:17;9.20;;;6.97;;
15699;SDS011;7950;42.744;23.174;2023-01-25T09:32:55;12.27;;;7.93;;
15699;SDS011;7950;42.744;23.174;2023-01-25T09:35:26;10.97;;;8.50;;
15699;SDS011;7950;42.744;23.174;2023-01-25T09:37:55;12.70;;;9.03;;
15699;SDS011;7950;42.744;23.174;2023-01-25T09:40:24;11.07;;;8.50;;
15699;SDS011;7950;42.744;23.174;2023-01-25T09:43:05;9.33;;;7.23;;
15699;SDS011;7950;42.744;23.174;2023-01-25T09:45:39;7.97;;;6.23;;
15699;SDS011;7950;42.744;23.174;2023-01-25T09:48:09;14.83;;;9.70;;
15699;SDS011;7950;42.744;23.174;2023-01-25T09:50:56;44.63;;;23.73;;
15699;SDS011;7950;42.744;23.174;2023-01-25T09:53:33;14.30;;;9.93;;
15699;SDS011;7950;42.744;23.174;2023-01-25T09:56:07;8.93;;;7.33;;
15699;SDS011;7950;42.744;23.174;2023-01-25T09:58:41;10.17;;;7.23;;
15699;SDS011;7950;42.744;23.174;2023-01-25T10:04:09;12.93;;;8.40;;
15699;SDS011;7950;42.744;23.174;2023-01-25T10:06:46;12.10;;;9.03;;
15699;SDS011;7950;42.744;23.174;2023-01-25T10:09:30;10.83;;;7.53;;
15699;SDS011;7950;42.744;23.174;2023-01-25T10:12:07;8.63;;;6.40;;
15699;SDS011;7950;42.744;23.174;2023-01-25T10:14:42;9.20;;;7.57;;
15699;SDS011;7950;42.744;23.174;2023-01-25T10:17:12;8.73;;;7.50;;
15699;SDS011;7950;42.744;23.174;2023-01-25T10:22:59;12.57;;;8.43;;
15699;SDS011;7950;42.744;23.174;2023-01-25T10:25:39;10.83;;;9.43;;
15699;SDS011;7950;42.744;23.174;2023-01-25T10:28:24;8.90;;;7.57;;
15699;SDS011;7950;42.744;23.174;2023-01-25T10:30:59;9.87;;;7.50;;
15699;SDS011;7950;42.744;23.174;2023-01-25T10:33:32;12.17;;;9.20;;
15699;SDS011;7950;42.744;23.174;2023-01-25T10:39:01;13.53;;;9.30;;
15699;SDS011;7950;42.744;23.174;2023-01-25T10:41:33;11.20;;;9.27;;
15699;SDS011;7950;42.744;23.174;2023-01-25T10:44:07;9.30;;;7.73;;
15699;SDS011;7950;42.744;23.174;2023-01-25T10:46:54;10.70;;;8.93;;
15699;SDS011;7950;42.744;23.174;2023-01-25T10:49:27;25.30;;;14.67;;
15699;SDS011;7950;42.744;23.174;2023-01-25T10:52:14;9.23;;;7.13;;
15699;SDS011;7950;42.744;23.174;2023-01-25T10:54:46;9.27;;;7.10;;
15699;SDS011;7950;42.744;23.174;2023-01-25T10:57:17;11.20;;;8.20;;
15699;SDS011;7950;42.744;23.174;2023-01-25T10:59:49;9.40;;;7.23;;
15699;SDS011;7950;42.744;23.174;2023-01-25T11:02:38;9.40;;;8.40;;
15699;SDS011;7950;42.744;23.174;2023-01-25T11:05:27;7.60;;;6.27;;
15699;SDS011;7950;42.744;23.174;2023-01-25T11:11:10;10.73;;;7.87;;
15699;SDS011;7950;42.744;23.174;2023-01-25T11:13:42;11.37;;;8.00;;
15699;SDS011;7950;42.744;23.174;2023-01-25T11:16:26;11.30;;;7.50;;
15699;SDS011;7950;42.744;23.174;2023-01-25T11:19:00;9.87;;;7.30;;
15699;SDS011;7950;42.744;23.174;2023-01-25T11:21:34;8.37;;;6.60;;
15699;SDS011;7950;42.744;23.174;2023-01-25T11:24:13;19.13;;;11.80;;
15699;SDS011;7950;42.744;23.174;2023-01-25T11:29:43;7.93;;;6.00;;
15699;SDS011;7950;42.744;23.174;2023-01-25T11:32:15;8.87;;;6.30;;
15699;SDS011;7950;42.744;23.174;2023-01-25T11:34:48;7.20;;;5.30;;
15699;SDS011;7950;42.744;23.174;2023-01-25T11:37:21;6.70;;;5.57;;
15699;SDS011;7950;42.744;23.174;2023-01-25T11:40:13;8.10;;;6.33;;
15699;SDS011;7950;42.744;23.174;2023-01-25T11:42:53;6.90;;;5.20;;
15699;SDS011;7950;42.744;23.174;2023-01-25T11:48:53;5.37;;;4.70;;
15699;SDS011;7950;42.744;23.174;2023-01-25T11:51:32;14.07;;;8.27;;
15699;SDS011;7950;42.744;23.174;2023-01-25T11:54:23;7.47;;;5.43;;
15699;SDS011;7950;42.744;23.174;2023-01-25T11:57:04;7.30;;;5.40;;
15699;SDS011;7950;42.744;23.174;2023-01-25T11:59:56;9.40;;;6.13;;
15699;SDS011;7950;42.744;23.174;2023-01-25T12:02:53;5.10;;;4.60;;
15699;SDS011;7950;42.744;23.174;2023-01-25T12:05:57;10.30;;;6.77;;
15699;SDS011;7950;42.744;23.174;2023-01-25T12:08:38;8.00;;;6.80;;
15699;SDS011;7950;42.744;23.174;2023-01-25T12:11:50;8.60;;;6.30;;
15699;SDS011;7950;42.744;23.174;2023-01-25T12:14:31;8.23;;;5.30;;
15699;SDS011;7950;42.744;23.174;2023-01-25T12:23:25;5.93;;;4.43;;
15699;SDS011;7950;42.744;23.174;2023-01-25T12:26:14;9.43;;;5.87;;
15699;SDS011;7950;42.744;23.174;2023-01-25T12:28:49;5.07;;;4.40;;
15699;SDS011;7950;42.744;23.174;2023-01-25T12:31:22;7.13;;;5.00;;
15699;SDS011;7950;42.744;23.174;2023-01-25T12:33:56;5.97;;;4.57;;
15699;SDS011;7950;42.744;23.174;2023-01-25T12:36:30;5.03;;;4.53;;
15699;SDS011;7950;42.744;23.174;2023-01-25T12:39:02;6.57;;;4.80;;
15699;SDS011;7950;42.744;23.174;2023-01-25T12:41:36;8.17;;;6.20;;
15699;SDS011;7950;42.744;23.174;2023-01-25T12:44:11;7.53;;;5.53;;
15699;SDS011;7950;42.744;23.174;2023-01-25T12:46:47;7.07;;;5.27;;
15699;SDS011;7950;42.744;23.174;2023-01-25T12:52:21;5.10;;;4.43;;
15699;SDS011;7950;42.744;23.174;2023-01-25T12:54:58;6.80;;;4.73;;
15699;SDS011;7950;42.744;23.174;2023-01-25T12:57:28;4.93;;;4.20;;
15699;SDS011;7950;42.744;23.174;2023-01-25T13:00:06;6.17;;;5.07;;
15699;SDS011;7950;42.744;23.174;2023-01-25T13:05:40;5.50;;;4.90;;
15699;SDS011;7950;42.744;23.174;2023-01-25T13:08:18;6.10;;;5.23;;
15699;SDS011;7950;42.744;23.174;2023-01-25T13:11:21;8.17;;;5.13;;
15699;SDS011;7950;42.744;23.174;2023-01-25T13:14:07;8.33;;;6.07;;
15699;SDS011;7950;42.744;23.174;2023-01-25T13:17:08;6.20;;;4.80;;
15699;SDS011;7950;42.744;23.174;2023-01-25T13:19:49;7.33;;;5.10;;
15699;SDS011;7950;42.744;23.174;2023-01-25T13:25:24;5.63;;;5.03;;
15699;SDS011;7950;42.744;23.174;2023-01-25T13:31:08;6.03;;;5.43;;
15699;SDS011;7950;42.744;23.174;2023-01-25T13:33:42;6.27;;;4.80;;
15699;SDS011;7950;42.744;23.174;2023-01-25T13:42:16;8.73;;;6.57;;
15699;SDS011;7950;42.744;23.174;2023-01-25T13:44:48;7.80;;;6.23;;
15699;SDS011;7950;42.744;23.174;2023-01-25T13:47:19;7.43;;;5.90;;
15699;SDS011;7950;42.744;23.174;2023-01-25T13:49:55;6.57;;;5.10;;
15699;SDS011;7950;42.744;23.174;2023-01-25T13:52:27;6.40;;;5.63;;
15699;SDS011;7950;42.744;23.174;2023-01-25T13:54:59;8.63;;;6.97;;
15699;SDS011;7950;42.744;23.174;2023-01-25T13:57:30;8.73;;;6.87;;
15699;SDS011;7950;42.744;23.174;2023-01-25T14:00:00;8.47;;;6.70;;
15699;SDS011;7950;42.744;23.174;2023-01-25T14:02:36;9.07;;;6.77;;
15699;SDS011;7950;42.744;23.174;2023-01-25T14:05:15;8.30;;;6.10;;
15699;SDS011;7950;42.744;23.174;2023-01-25T14:07:46;7.50;;;6.27;;
15699;SDS011;7950;42.744;23.174;2023-01-25T14:13:17;9.00;;;7.43;;
15699;SDS011;7950;42.744;23.174;2023-01-25T14:15:53;12.50;;;7.70;;
15699;SDS011;7950;42.744;23.174;2023-01-25T14:18:28;9.13;;;6.70;;
15699;SDS011;7950;42.744;23.174;2023-01-25T14:21:08;11.67;;;7.53;;
15699;SDS011;7950;42.744;23.174;2023-01-25T14:23:39;9.17;;;7.03;;
15699;SDS011;7950;42.744;23.174;2023-01-25T14:26:16;9.53;;;6.70;;
15699;SDS011;7950;42.744;23.174;2023-01-25T14:28:47;14.30;;;10.37;;
15699;SDS011;7950;42.744;23.174;2023-01-25T14:31:27;12.87;;;8.27;;
15699;SDS011;7950;42.744;23.174;2023-01-25T14:33:59;10.53;;;7.17;;
15699;SDS011;7950;42.744;23.174;2023-01-25T14:36:31;8.60;;;7.10;;
15699;SDS011;7950;42.744;23.174;2023-01-25T14:39:00;10.83;;;7.50;;
15699;SDS011;7950;42.744;23.174;2023-01-25T14:42:26;11.60;;;8.27;;
15699;SDS011;7950;42.744;23.174;2023-01-25T14:44:54;12.03;;;8.30;;
15699;SDS011;7950;42.744;23.174;2023-01-25T14:47:28;7.57;;;5.73;;
15699;SDS011;7950;42.744;23.174;2023-01-25T14:53:05;8.77;;;6.53;;
15699;SDS011;7950;42.744;23.174;2023-01-25T14:58:32;9.83;;;6.47;;
15699;SDS011;7950;42.744;23.174;2023-01-25T15:01:01;9.37;;;6.67;;
15699;SDS011;7950;42.744;23.174;2023-01-25T15:03:30;9.43;;;6.50;;
15699;SDS011;7950;42.744;23.174;2023-01-25T15:06:00;7.83;;;5.80;;
15699;SDS011;7950;42.744;23.174;2023-01-25T15:08:34;14.87;;;8.97;;
15699;SDS011;7950;42.744;23.174;2023-01-25T15:14:12;9.10;;;6.50;;
15699;SDS011;7950;42.744;23.174;2023-01-25T15:16:44;8.33;;;6.17;;
15699;SDS011;7950;42.744;23.174;2023-01-25T15:19:23;8.23;;;5.17;;
15699;SDS011;7950;42.744;23.174;2023-01-25T15:21:54;7.07;;;5.13;;
15699;SDS011;7950;42.744;23.174;2023-01-25T15:24:24;8.03;;;5.63;;
15699;SDS011;7950;42.744;23.174;2023-01-25T15:26:53;7.67;;;4.93;;
15699;SDS011;7950;42.744;23.174;2023-01-25T15:29:24;7.83;;;5.80;;
15699;SDS011;7950;42.744;23.174;2023-01-25T15:31:54;6.07;;;4.87;;
15699;SDS011;7950;42.744;23.174;2023-01-25T15:34:24;7.07;;;5.60;;
15699;SDS011;7950;42.744;23.174;2023-01-25T15:36:55;8.73;;;5.40;;
15699;SDS011;7950;42.744;23.174;2023-01-25T15:39:23;9.80;;;5.60;;
15699;SDS011;7950;42.744;23.174;2023-01-25T15:41:54;13.30;;;10.27;;
15699;SDS011;7950;42.744;23.174;2023-01-25T15:44:24;23.50;;;14.73;;
15699;SDS011;7950;42.744;23.174;2023-01-25T15:46:53;14.03;;;9.13;;
15699;SDS011;7950;42.744;23.174;2023-01-25T15:49:23;22.47;;;15.80;;
15699;SDS011;7950;42.744;23.174;2023-01-25T15:57:41;14.27;;;10.27;;
15699;SDS011;7950;42.744;23.174;2023-01-25T16:00:18;13.23;;;9.67;;
15699;SDS011;7950;42.744;23.174;2023-01-25T16:02:48;10.57;;;6.50;;
15699;SDS011;7950;42.744;23.174;2023-01-25T16:05:17;12.10;;;7.83;;
15699;SDS011;7950;42.744;23.174;2023-01-25T16:07:46;8.97;;;6.20;;
15699;SDS011;7950;42.744;23.174;2023-01-25T16:10:18;9.73;;;6.20;;
15699;SDS011;7950;42.744;23.174;2023-01-25T16:12:50;7.27;;;5.57;;
15699;SDS011;7950;42.744;23.174;2023-01-25T16:15:20;7.07;;;4.40;;
15699;SDS011;7950;42.744;23.174;2023-01-25T16:17:49;12.67;;;7.00;;
15699;SDS011;7950;42.744;23.174;2023-01-25T16:20:19;7.07;;;5.07;;
15699;SDS011;7950;42.744;23.174;2023-01-25T16:22:48;7.40;;;5.77;;
15699;SDS011;7950;42.744;23.174;2023-01-25T16:25:16;7.27;;;5.27;;
15699;SDS011;7950;42.744;23.174;2023-01-25T16:27:46;5.30;;;4.47;;
15699;SDS011;7950;42.744;23.174;2023-01-25T16:30:17;18.90;;;9.93;;
15699;SDS011;7950;42.744;23.174;2023-01-25T16:32:51;6.80;;;4.30;;
15699;SDS011;7950;42.744;23.174;2023-01-25T16:35:20;8.50;;;4.70;;
15699;SDS011;7950;42.744;23.174;2023-01-25T16:37:49;5.93;;;4.13;;
15699;SDS011;7950;42.744;23.174;2023-01-25T16:40:21;7.03;;;4.93;;
15699;SDS011;7950;42.744;23.174;2023-01-25T16:45:58;7.53;;;4.90;;
15699;SDS011;7950;42.744;23.174;2023-01-25T16:48:27;8.93;;;6.90;;
15699;SDS011;7950;42.744;23.174;2023-01-25T16:50:55;9.30;;;6.10;;
15699;SDS011;7950;42.744;23.174;2023-01-25T16:53:24;12.77;;;7.47;;
15699;SDS011;7950;42.744;23.174;2023-01-25T16:58:48;20.17;;;12.20;;
15699;SDS011;7950;42.744;23.174;2023-01-25T17:01:20;9.00;;;5.97;;
15699;SDS011;7950;42.744;23.174;2023-01-25T17:03:49;7.43;;;5.30;;
15699;SDS011;7950;42.744;23.174;2023-01-25T17:06:20;6.87;;;4.93;;
15699;SDS011;7950;42.744;23.174;2023-01-25T17:08:50;5.67;;;4.47;;
15699;SDS011;7950;42.744;23.174;2023-01-25T17:11:21;9.40;;;7.57;;